sensor_id;sensor_type;location;lat;lon;timestamp;P1;durP1;ratioP1;P2;durP2;ratioP2
44110;SDS011;29774;52.664;5.074;2023-11-22T00:00:58;6.10;;;4.10;;
44110;SDS011;29774;52.664;5.074;2023-11-22T00:03:23;4.85;;;4.05;;
44110;SDS011;29774;52.664;5.074;2023-11-22T00:05:49;5.68;;;3.70;;
44110;SDS011;29774;52.664;5.074;2023-11-22T00:08:16;5.43;;;3.70;;
44110;SDS011;29774;52.664;5.074;2023-11-22T00:10:42;4.70;;;3.60;;
44110;SDS011;29774;52.664;5.074;2023-11-22T00:13:09;5.43;;;3.80;;
44110;SDS011;29774;52.664;5.074;2023-11-22T00:15:36;5.35;;;3.75;;
44110;SDS011;29774;52.664;5.074;2023-11-22T00:18:02;4.88;;;4.38;;
44110;SDS011;29774;52.664;5.074;2023-11-22T00:20:28;4.50;;;4.03;;
44110;SDS011;29774;52.664;5.074;2023-11-22T00:22:55;4.72;;;3.90;;
44110;SDS011;29774;52.664;5.074;2023-11-22T00:25:21;6.38;;;3.90;;
44110;SDS011;29774;52.664;5.074;2023-11-22T00:27:46;6.82;;;4.28;;
44110;SDS011;29774;52.664;5.074;2023-11-22T00:30:13;5.10;;;4.05;;
44110;SDS011;29774;52.664;5.074;2023-11-22T00:32:39;6.40;;;3.58;;
44110;SDS011;29774;52.664;5.074;2023-11-22T00:35:05;7.28;;;3.92;;
44110;SDS011;29774;52.664;5.074;2023-11-22T00:37:32;7.90;;;3.90;;
44110;SDS011;29774;52.664;5.074;2023-11-22T00:39:59;5.47;;;3.80;;
44110;SDS011;29774;52.664;5.074;2023-11-22T00:42:25;4.43;;;3.70;;
44110;SDS011;29774;52.664;5.074;2023-11-22T00:44:52;4.45;;;3.80;;
44110;SDS011;29774;52.664;5.074;2023-11-22T00:47:18;5.85;;;3.80;;
44110;SDS011;29774;52.664;5.074;2023-11-22T00:49:44;4.28;;;3.88;;
44110;SDS011;29774;52.664;5.074;2023-11-22T00:52:09;5.60;;;3.67;;
44110;SDS011;29774;52.664;5.074;2023-11-22T00:54:35;5.65;;;4.10;;
44110;SDS011;29774;52.664;5.074;2023-11-22T00:57:01;4.45;;;3.60;;
44110;SDS011;29774;52.664;5.074;2023-11-22T00:59:26;5.05;;;3.72;;
44110;SDS011;29774;52.664;5.074;2023-11-22T01:01:52;5.20;;;3.97;;
44110;SDS011;29774;52.664;5.074;2023-11-22T01:04:17;5.07;;;4.00;;
44110;SDS011;29774;52.664;5.074;2023-11-22T01:06:43;4.32;;;3.70;;
44110;SDS011;29774;52.664;5.074;2023-11-22T01:09:08;7.10;;;4.22;;
44110;SDS011;29774;52.664;5.074;2023-11-22T01:11:37;4.75;;;3.95;;
44110;SDS011;29774;52.664;5.074;2023-11-22T01:14:02;5.82;;;3.97;;
44110;SDS011;29774;52.664;5.074;2023-11-22T01:16:28;5.43;;;4.03;;
44110;SDS011;29774;52.664;5.074;2023-11-22T01:18:53;6.40;;;3.97;;
44110;SDS011;29774;52.664;5.074;2023-11-22T01:21:19;5.20;;;3.67;;
44110;SDS011;29774;52.664;5.074;2023-11-22T01:23:45;5.95;;;4.20;;
44110;SDS011;29774;52.664;5.074;2023-11-22T01:26:11;4.68;;;3.80;;
44110;SDS011;29774;52.664;5.074;2023-11-22T01:28:37;5.00;;;3.92;;
44110;SDS011;29774;52.664;5.074;2023-11-22T01:31:05;4.15;;;3.65;;
44110;SDS011;29774;52.664;5.074;2023-11-22T01:33:31;5.00;;;3.88;;
44110;SDS011;29774;52.664;5.074;2023-11-22T01:36:01;5.57;;;4.10;;
44110;SDS011;29774;52.664;5.074;2023-11-22T01:38:27;4.65;;;3.97;;
44110;SDS011;29774;52.664;5.074;2023-11-22T01:40:52;4.63;;;4.13;;
44110;SDS011;29774;52.664;5.074;2023-11-22T01:43:18;6.93;;;3.97;;
44110;SDS011;29774;52.664;5.074;2023-11-22T01:45:45;4.07;;;3.33;;
44110;SDS011;29774;52.664;5.074;2023-11-22T01:48:11;4.40;;;3.75;;
44110;SDS011;29774;52.664;5.074;2023-11-22T01:50:38;6.00;;;4.00;;
44110;SDS011;29774;52.664;5.074;2023-11-22T01:53:05;4.32;;;3.78;;
44110;SDS011;29774;52.664;5.074;2023-11-22T01:55:31;4.88;;;3.60;;
44110;SDS011;29774;52.664;5.074;2023-11-22T01:57:57;5.97;;;4.68;;
44110;SDS011;29774;52.664;5.074;2023-11-22T02:00:23;5.47;;;4.20;;
44110;SDS011;29774;52.664;5.074;2023-11-22T02:02:51;5.47;;;3.83;;
44110;SDS011;29774;52.664;5.074;2023-11-22T02:05:16;3.63;;;3.28;;
44110;SDS011;29774;52.664;5.074;2023-11-22T02:07:43;4.72;;;4.22;;
44110;SDS011;29774;52.664;5.074;2023-11-22T02:10:08;5.05;;;4.45;;
44110;SDS011;29774;52.664;5.074;2023-11-22T02:12:34;5.18;;;4.18;;
44110;SDS011;29774;52.664;5.074;2023-11-22T02:15:00;4.75;;;3.83;;
44110;SDS011;29774;52.664;5.074;2023-11-22T02:17:28;5.30;;;4.18;;
44110;SDS011;29774;52.664;5.074;2023-11-22T02:19:54;5.78;;;3.90;;
44110;SDS011;29774;52.664;5.074;2023-11-22T02:22:19;4.25;;;3.78;;
44110;SDS011;29774;52.664;5.074;2023-11-22T02:24:46;4.22;;;3.83;;
44110;SDS011;29774;52.664;5.074;2023-11-22T02:27:12;5.20;;;3.90;;
44110;SDS011;29774;52.664;5.074;2023-11-22T02:29:37;3.92;;;3.50;;
44110;SDS011;29774;52.664;5.074;2023-11-22T02:32:03;3.65;;;3.35;;
44110;SDS011;29774;52.664;5.074;2023-11-22T02:34:29;5.45;;;4.25;;
44110;SDS011;29774;52.664;5.074;2023-11-22T02:36:55;4.20;;;3.58;;
44110;SDS011;29774;52.664;5.074;2023-11-22T02:39:21;4.38;;;3.95;;
44110;SDS011;29774;52.664;5.074;2023-11-22T02:41:54;4.32;;;3.40;;
44110;SDS011;29774;52.664;5.074;2023-11-22T02:44:20;4.15;;;3.70;;
44110;SDS011;29774;52.664;5.074;2023-11-22T02:46:46;4.05;;;3.65;;
44110;SDS011;29774;52.664;5.074;2023-11-22T02:49:12;5.07;;;3.78;;
44110;SDS011;29774;52.664;5.074;2023-11-22T02:51:37;3.63;;;3.30;;
44110;SDS011;29774;52.664;5.074;2023-11-22T02:54:03;5.85;;;4.40;;
44110;SDS011;29774;52.664;5.074;2023-11-22T02:56:30;4.32;;;3.38;;
44110;SDS011;29774;52.664;5.074;2023-11-22T02:58:56;5.43;;;4.07;;
44110;SDS011;29774;52.664;5.074;2023-11-22T03:01:21;5.40;;;3.83;;
44110;SDS011;29774;52.664;5.074;2023-11-22T03:03:47;4.60;;;3.72;;
44110;SDS011;29774;52.664;5.074;2023-11-22T03:06:12;5.47;;;4.05;;
44110;SDS011;29774;52.664;5.074;2023-11-22T03:08:38;6.38;;;3.80;;
44110;SDS011;29774;52.664;5.074;2023-11-22T03:11:03;6.15;;;3.97;;
44110;SDS011;29774;52.664;5.074;2023-11-22T03:13:29;5.32;;;3.53;;
44110;SDS011;29774;52.664;5.074;2023-11-22T03:15:55;5.60;;;4.20;;
44110;SDS011;29774;52.664;5.074;2023-11-22T03:18:20;5.53;;;4.00;;
44110;SDS011;29774;52.664;5.074;2023-11-22T03:20:46;4.32;;;3.40;;
44110;SDS011;29774;52.664;5.074;2023-11-22T03:23:12;6.07;;;3.90;;
44110;SDS011;29774;52.664;5.074;2023-11-22T03:25:37;5.45;;;4.00;;
44110;SDS011;29774;52.664;5.074;2023-11-22T03:28:03;6.80;;;3.70;;
44110;SDS011;29774;52.664;5.074;2023-11-22T03:30:28;7.55;;;4.45;;
44110;SDS011;29774;52.664;5.074;2023-11-22T03:32:54;5.30;;;4.80;;
44110;SDS011;29774;52.664;5.074;2023-11-22T03:35:20;8.25;;;4.55;;
44110;SDS011;29774;52.664;5.074;2023-11-22T03:37:46;7.00;;;5.07;;
44110;SDS011;29774;52.664;5.074;2023-11-22T03:40:12;5.22;;;4.40;;
44110;SDS011;29774;52.664;5.074;2023-11-22T03:42:39;5.90;;;4.68;;
44110;SDS011;29774;52.664;5.074;2023-11-22T03:45:06;5.75;;;4.10;;
44110;SDS011;29774;52.664;5.074;2023-11-22T03:47:32;5.68;;;4.88;;
44110;SDS011;29774;52.664;5.074;2023-11-22T03:50:02;5.90;;;4.45;;
44110;SDS011;29774;52.664;5.074;2023-11-22T03:52:30;7.43;;;4.97;;
44110;SDS011;29774;52.664;5.074;2023-11-22T03:54:56;4.97;;;4.38;;
44110;SDS011;29774;52.664;5.074;2023-11-22T03:57:22;5.60;;;4.45;;
44110;SDS011;29774;52.664;5.074;2023-11-22T03:59:48;4.88;;;4.03;;
44110;SDS011;29774;52.664;5.074;2023-11-22T04:02:13;5.40;;;4.07;;
44110;SDS011;29774;52.664;5.074;2023-11-22T04:04:39;5.25;;;4.15;;
44110;SDS011;29774;52.664;5.074;2023-11-22T04:07:06;5.07;;;4.47;;
44110;SDS011;29774;52.664;5.074;2023-11-22T04:09:33;5.45;;;4.35;;
44110;SDS011;29774;52.664;5.074;2023-11-22T04:11:59;4.50;;;4.10;;
44110;SDS011;29774;52.664;5.074;2023-11-22T04:14:24;6.07;;;4.88;;
44110;SDS011;29774;52.664;5.074;2023-11-22T04:16:52;5.50;;;4.72;;
44110;SDS011;29774;52.664;5.074;2023-11-22T04:19:18;5.47;;;4.95;;
44110;SDS011;29774;52.664;5.074;2023-11-22T04:21:43;5.72;;;4.53;;
44110;SDS011;29774;52.664;5.074;2023-11-22T04:24:09;5.20;;;4.40;;
44110;SDS011;29774;52.664;5.074;2023-11-22T04:26:37;5.47;;;4.65;;
44110;SDS011;29774;52.664;5.074;2023-11-22T04:29:03;6.38;;;4.68;;
44110;SDS011;29774;52.664;5.074;2023-11-22T04:31:29;5.15;;;4.10;;
44110;SDS011;29774;52.664;5.074;2023-11-22T04:33:55;10.23;;;6.45;;
44110;SDS011;29774;52.664;5.074;2023-11-22T04:36:22;6.18;;;5.05;;
44110;SDS011;29774;52.664;5.074;2023-11-22T04:38:48;6.25;;;4.70;;
44110;SDS011;29774;52.664;5.074;2023-11-22T04:41:14;5.25;;;4.53;;
44110;SDS011;29774;52.664;5.074;2023-11-22T04:43:40;5.00;;;4.15;;
44110;SDS011;29774;52.664;5.074;2023-11-22T04:46:06;4.97;;;4.47;;
44110;SDS011;29774;52.664;5.074;2023-11-22T04:48:33;5.15;;;4.43;;
44110;SDS011;29774;52.664;5.074;2023-11-22T04:50:59;7.82;;;4.95;;
44110;SDS011;29774;52.664;5.074;2023-11-22T04:53:24;8.13;;;5.18;;
44110;SDS011;29774;52.664;5.074;2023-11-22T04:55:50;6.65;;;5.60;;
44110;SDS011;29774;52.664;5.074;2023-11-22T04:58:15;6.75;;;5.53;;
44110;SDS011;29774;52.664;5.074;2023-11-22T05:00:41;8.10;;;5.80;;
44110;SDS011;29774;52.664;5.074;2023-11-22T05:03:07;7.38;;;5.38;;
44110;SDS011;29774;52.664;5.074;2023-11-22T05:05:32;8.15;;;5.82;;
44110;SDS011;29774;52.664;5.074;2023-11-22T05:07:58;6.80;;;5.57;;
44110;SDS011;29774;52.664;5.074;2023-11-22T05:10:23;7.45;;;5.28;;
44110;SDS011;29774;52.664;5.074;2023-11-22T05:12:49;6.47;;;4.95;;
44110;SDS011;29774;52.664;5.074;2023-11-22T05:15:15;7.15;;;5.55;;
44110;SDS011;29774;52.664;5.074;2023-11-22T05:17:40;6.22;;;5.00;;
44110;SDS011;29774;52.664;5.074;2023-11-22T05:20:06;7.50;;;5.22;;
44110;SDS011;29774;52.664;5.074;2023-11-22T05:22:34;6.18;;;5.10;;
44110;SDS011;29774;52.664;5.074;2023-11-22T05:25:01;9.07;;;5.50;;
44110;SDS011;29774;52.664;5.074;2023-11-22T05:27:26;6.80;;;4.90;;
44110;SDS011;29774;52.664;5.074;2023-11-22T05:29:53;6.70;;;5.10;;
44110;SDS011;29774;52.664;5.074;2023-11-22T05:32:19;7.75;;;5.60;;
44110;SDS011;29774;52.664;5.074;2023-11-22T05:34:44;6.50;;;4.55;;
44110;SDS011;29774;52.664;5.074;2023-11-22T05:37:10;6.38;;;5.20;;
44110;SDS011;29774;52.664;5.074;2023-11-22T05:39:37;5.90;;;4.88;;
44110;SDS011;29774;52.664;5.074;2023-11-22T05:42:02;6.85;;;4.47;;
44110;SDS011;29774;52.664;5.074;2023-11-22T05:44:28;7.82;;;5.38;;
44110;SDS011;29774;52.664;5.074;2023-11-22T05:46:54;4.90;;;4.35;;
44110;SDS011;29774;52.664;5.074;2023-11-22T05:49:19;7.15;;;4.90;;
44110;SDS011;29774;52.664;5.074;2023-11-22T05:51:45;7.28;;;4.53;;
44110;SDS011;29774;52.664;5.074;2023-11-22T05:54:10;8.27;;;4.88;;
44110;SDS011;29774;52.664;5.074;2023-11-22T05:56:37;6.68;;;4.68;;
44110;SDS011;29774;52.664;5.074;2023-11-22T05:59:03;7.82;;;4.78;;
44110;SDS011;29774;52.664;5.074;2023-11-22T06:01:29;8.48;;;5.00;;
44110;SDS011;29774;52.664;5.074;2023-11-22T06:03:55;6.78;;;5.13;;
44110;SDS011;29774;52.664;5.074;2023-11-22T06:06:21;6.93;;;4.53;;
44110;SDS011;29774;52.664;5.074;2023-11-22T06:08:47;8.02;;;5.15;;
44110;SDS011;29774;52.664;5.074;2023-11-22T06:11:13;5.97;;;4.88;;
44110;SDS011;29774;52.664;5.074;2023-11-22T06:13:40;8.10;;;4.70;;
44110;SDS011;29774;52.664;5.074;2023-11-22T06:16:07;7.38;;;4.47;;
44110;SDS011;29774;52.664;5.074;2023-11-22T06:18:34;7.03;;;4.88;;
44110;SDS011;29774;52.664;5.074;2023-11-22T06:21:05;6.93;;;4.78;;
44110;SDS011;29774;52.664;5.074;2023-11-22T06:23:31;6.15;;;4.03;;
44110;SDS011;29774;52.664;5.074;2023-11-22T06:25:56;9.38;;;4.75;;
44110;SDS011;29774;52.664;5.074;2023-11-22T06:28:22;5.53;;;3.65;;
44110;SDS011;29774;52.664;5.074;2023-11-22T06:30:47;5.78;;;3.47;;
44110;SDS011;29774;52.664;5.074;2023-11-22T06:33:13;6.85;;;4.45;;
44110;SDS011;29774;52.664;5.074;2023-11-22T06:35:39;5.70;;;4.32;;
44110;SDS011;29774;52.664;5.074;2023-11-22T06:38:05;9.35;;;4.45;;
44110;SDS011;29774;52.664;5.074;2023-11-22T06:40:31;7.60;;;4.72;;
44110;SDS011;29774;52.664;5.074;2023-11-22T06:42:56;7.10;;;4.78;;
44110;SDS011;29774;52.664;5.074;2023-11-22T06:45:22;7.13;;;4.93;;
44110;SDS011;29774;52.664;5.074;2023-11-22T06:47:47;8.30;;;5.35;;
44110;SDS011;29774;52.664;5.074;2023-11-22T06:50:15;8.63;;;5.78;;
44110;SDS011;29774;52.664;5.074;2023-11-22T06:52:41;7.57;;;5.30;;
44110;SDS011;29774;52.664;5.074;2023-11-22T06:55:07;6.55;;;4.85;;
44110;SDS011;29774;52.664;5.074;2023-11-22T06:57:35;9.32;;;5.68;;
44110;SDS011;29774;52.664;5.074;2023-11-22T07:00:01;7.82;;;5.30;;
44110;SDS011;29774;52.664;5.074;2023-11-22T07:02:32;7.60;;;5.50;;
44110;SDS011;29774;52.664;5.074;2023-11-22T07:05:00;7.47;;;5.05;;
44110;SDS011;29774;52.664;5.074;2023-11-22T07:07:26;7.80;;;5.38;;
44110;SDS011;29774;52.664;5.074;2023-11-22T07:09:51;7.20;;;4.88;;
44110;SDS011;29774;52.664;5.074;2023-11-22T07:12:18;7.38;;;5.13;;
44110;SDS011;29774;52.664;5.074;2023-11-22T07:14:47;6.72;;;4.32;;
44110;SDS011;29774;52.664;5.074;2023-11-22T07:17:15;7.78;;;5.05;;
44110;SDS011;29774;52.664;5.074;2023-11-22T07:19:42;8.43;;;4.88;;
44110;SDS011;29774;52.664;5.074;2023-11-22T07:22:12;9.38;;;5.40;;
44110;SDS011;29774;52.664;5.074;2023-11-22T07:24:43;8.13;;;5.40;;
44110;SDS011;29774;52.664;5.074;2023-11-22T07:27:11;7.68;;;5.55;;
44110;SDS011;29774;52.664;5.074;2023-11-22T07:29:37;8.70;;;5.47;;
44110;SDS011;29774;52.664;5.074;2023-11-22T07:32:06;8.38;;;5.68;;
44110;SDS011;29774;52.664;5.074;2023-11-22T07:34:34;9.82;;;5.78;;
44110;SDS011;29774;52.664;5.074;2023-11-22T07:37:00;9.27;;;6.40;;
44110;SDS011;29774;52.664;5.074;2023-11-22T07:39:26;8.35;;;5.57;;
44110;SDS011;29774;52.664;5.074;2023-11-22T07:41:55;6.93;;;5.00;;
44110;SDS011;29774;52.664;5.074;2023-11-22T07:44:21;10.40;;;5.40;;
44110;SDS011;29774;52.664;5.074;2023-11-22T07:46:47;7.90;;;5.72;;
44110;SDS011;29774;52.664;5.074;2023-11-22T07:49:13;8.32;;;5.47;;
44110;SDS011;29774;52.664;5.074;2023-11-22T07:51:39;8.50;;;6.20;;
44110;SDS011;29774;52.664;5.074;2023-11-22T07:54:05;10.25;;;6.10;;
44110;SDS011;29774;52.664;5.074;2023-11-22T07:56:31;9.52;;;7.10;;
44110;SDS011;29774;52.664;5.074;2023-11-22T07:58:57;11.63;;;6.50;;
44110;SDS011;29774;52.664;5.074;2023-11-22T08:01:23;8.30;;;5.85;;
44110;SDS011;29774;52.664;5.074;2023-11-22T08:03:50;10.82;;;6.63;;
44110;SDS011;29774;52.664;5.074;2023-11-22T08:06:16;9.65;;;6.15;;
44110;SDS011;29774;52.664;5.074;2023-11-22T08:08:42;8.35;;;6.20;;
44110;SDS011;29774;52.664;5.074;2023-11-22T08:11:10;7.80;;;5.00;;
44110;SDS011;29774;52.664;5.074;2023-11-22T08:13:42;9.15;;;6.32;;
44110;SDS011;29774;52.664;5.074;2023-11-22T08:16:09;10.05;;;6.80;;
44110;SDS011;29774;52.664;5.074;2023-11-22T08:18:38;11.68;;;6.50;;
44110;SDS011;29774;52.664;5.074;2023-11-22T08:21:04;10.10;;;6.68;;
44110;SDS011;29774;52.664;5.074;2023-11-22T08:23:30;11.70;;;7.25;;
44110;SDS011;29774;52.664;5.074;2023-11-22T08:25:57;8.73;;;5.40;;
44110;SDS011;29774;52.664;5.074;2023-11-22T08:28:25;8.80;;;5.88;;
44110;SDS011;29774;52.664;5.074;2023-11-22T08:30:51;11.02;;;7.15;;
44110;SDS011;29774;52.664;5.074;2023-11-22T08:33:18;11.27;;;7.88;;
44110;SDS011;29774;52.664;5.074;2023-11-22T08:35:43;8.07;;;5.63;;
44110;SDS011;29774;52.664;5.074;2023-11-22T08:38:09;10.50;;;6.88;;
44110;SDS011;29774;52.664;5.074;2023-11-22T08:40:35;7.95;;;5.43;;
44110;SDS011;29774;52.664;5.074;2023-11-22T08:43:05;10.13;;;6.18;;
44110;SDS011;29774;52.664;5.074;2023-11-22T08:45:31;10.98;;;6.78;;
44110;SDS011;29774;52.664;5.074;2023-11-22T08:47:56;11.95;;;6.20;;
44110;SDS011;29774;52.664;5.074;2023-11-22T08:50:22;9.90;;;7.38;;
44110;SDS011;29774;52.664;5.074;2023-11-22T08:52:48;10.93;;;7.82;;
44110;SDS011;29774;52.664;5.074;2023-11-22T08:55:17;13.27;;;7.00;;
44110;SDS011;29774;52.664;5.074;2023-11-22T08:57:47;10.02;;;6.75;;
44110;SDS011;29774;52.664;5.074;2023-11-22T09:00:13;12.73;;;7.07;;
44110;SDS011;29774;52.664;5.074;2023-11-22T09:02:39;12.25;;;7.30;;
44110;SDS011;29774;52.664;5.074;2023-11-22T09:05:05;10.10;;;6.55;;
44110;SDS011;29774;52.664;5.074;2023-11-22T09:07:33;10.73;;;6.28;;
44110;SDS011;29774;52.664;5.074;2023-11-22T09:10:01;9.50;;;7.07;;
44110;SDS011;29774;52.664;5.074;2023-11-22T09:12:37;12.45;;;7.38;;
44110;SDS011;29774;52.664;5.074;2023-11-22T09:15:06;9.95;;;6.75;;
44110;SDS011;29774;52.664;5.074;2023-11-22T09:17:36;10.55;;;7.53;;
44110;SDS011;29774;52.664;5.074;2023-11-22T09:20:08;11.65;;;7.25;;
44110;SDS011;29774;52.664;5.074;2023-11-22T09:25:16;11.52;;;7.85;;
44110;SDS011;29774;52.664;5.074;2023-11-22T09:27:44;8.95;;;6.43;;
44110;SDS011;29774;52.664;5.074;2023-11-22T09:30:12;9.35;;;5.85;;
44110;SDS011;29774;52.664;5.074;2023-11-22T09:32:44;11.40;;;7.32;;
44110;SDS011;29774;52.664;5.074;2023-11-22T09:35:11;8.05;;;5.22;;
44110;SDS011;29774;52.664;5.074;2023-11-22T09:37:38;11.15;;;6.38;;
44110;SDS011;29774;52.664;5.074;2023-11-22T09:40:07;10.23;;;6.68;;
44110;SDS011;29774;52.664;5.074;2023-11-22T09:42:34;10.43;;;6.28;;
44110;SDS011;29774;52.664;5.074;2023-11-22T09:45:00;8.40;;;6.18;;
44110;SDS011;29774;52.664;5.074;2023-11-22T09:47:28;8.73;;;6.05;;
44110;SDS011;29774;52.664;5.074;2023-11-22T09:49:57;12.60;;;7.80;;
44110;SDS011;29774;52.664;5.074;2023-11-22T09:52:30;8.98;;;6.50;;
44110;SDS011;29774;52.664;5.074;2023-11-22T09:54:59;8.68;;;5.80;;
44110;SDS011;29774;52.664;5.074;2023-11-22T09:57:26;9.15;;;5.97;;
44110;SDS011;29774;52.664;5.074;2023-11-22T09:59:54;8.90;;;6.47;;
44110;SDS011;29774;52.664;5.074;2023-11-22T10:02:22;10.10;;;7.53;;
44110;SDS011;29774;52.664;5.074;2023-11-22T10:04:53;10.45;;;7.38;;
44110;SDS011;29774;52.664;5.074;2023-11-22T10:07:19;8.30;;;6.22;;
44110;SDS011;29774;52.664;5.074;2023-11-22T10:09:45;9.35;;;6.75;;
44110;SDS011;29774;52.664;5.074;2023-11-22T10:12:11;9.68;;;6.78;;
44110;SDS011;29774;52.664;5.074;2023-11-22T10:14:38;8.50;;;5.88;;
44110;SDS011;29774;52.664;5.074;2023-11-22T10:17:04;9.80;;;6.25;;
44110;SDS011;29774;52.664;5.074;2023-11-22T10:19:30;12.07;;;7.50;;
44110;SDS011;29774;52.664;5.074;2023-11-22T10:22:05;10.23;;;6.68;;
44110;SDS011;29774;52.664;5.074;2023-11-22T10:24:32;11.45;;;7.38;;
44110;SDS011;29774;52.664;5.074;2023-11-22T10:27:02;10.60;;;7.35;;
44110;SDS011;29774;52.664;5.074;2023-11-22T10:29:28;12.55;;;7.38;;
44110;SDS011;29774;52.664;5.074;2023-11-22T10:31:54;9.55;;;6.70;;
44110;SDS011;29774;52.664;5.074;2023-11-22T10:34:23;9.38;;;7.35;;
44110;SDS011;29774;52.664;5.074;2023-11-22T10:36:49;11.70;;;6.82;;
44110;SDS011;29774;52.664;5.074;2023-11-22T10:39:20;8.82;;;6.53;;
44110;SDS011;29774;52.664;5.074;2023-11-22T10:41:47;10.68;;;7.43;;
44110;SDS011;29774;52.664;5.074;2023-11-22T10:44:13;8.60;;;5.72;;
44110;SDS011;29774;52.664;5.074;2023-11-22T10:46:41;10.43;;;7.43;;
44110;SDS011;29774;52.664;5.074;2023-11-22T10:49:07;10.32;;;6.25;;
44110;SDS011;29774;52.664;5.074;2023-11-22T10:51:33;9.38;;;6.07;;
44110;SDS011;29774;52.664;5.074;2023-11-22T10:54:01;9.35;;;6.32;;
44110;SDS011;29774;52.664;5.074;2023-11-22T10:56:28;7.13;;;5.25;;
44110;SDS011;29774;52.664;5.074;2023-11-22T10:59:09;6.72;;;5.25;;
44110;SDS011;29774;52.664;5.074;2023-11-22T11:01:37;10.43;;;7.00;;
44110;SDS011;29774;52.664;5.074;2023-11-22T11:04:11;9.65;;;7.18;;
44110;SDS011;29774;52.664;5.074;2023-11-22T11:06:46;8.60;;;6.32;;
44110;SDS011;29774;52.664;5.074;2023-11-22T11:09:16;10.40;;;6.72;;
44110;SDS011;29774;52.664;5.074;2023-11-22T11:11:46;9.15;;;6.97;;
44110;SDS011;29774;52.664;5.074;2023-11-22T11:14:12;8.98;;;5.78;;
44110;SDS011;29774;52.664;5.074;2023-11-22T11:16:39;8.38;;;5.55;;
44110;SDS011;29774;52.664;5.074;2023-11-22T11:19:12;9.25;;;6.57;;
44110;SDS011;29774;52.664;5.074;2023-11-22T11:21:39;9.75;;;6.72;;
44110;SDS011;29774;52.664;5.074;2023-11-22T11:24:05;9.23;;;6.00;;
44110;SDS011;29774;52.664;5.074;2023-11-22T11:26:32;9.90;;;7.53;;
44110;SDS011;29774;52.664;5.074;2023-11-22T11:28:59;10.05;;;7.95;;
44110;SDS011;29774;52.664;5.074;2023-11-22T11:31:25;10.10;;;6.22;;
44110;SDS011;29774;52.664;5.074;2023-11-22T11:33:57;10.23;;;5.85;;
44110;SDS011;29774;52.664;5.074;2023-11-22T11:36:25;7.78;;;6.25;;
44110;SDS011;29774;52.664;5.074;2023-11-22T11:38:55;9.05;;;6.30;;
44110;SDS011;29774;52.664;5.074;2023-11-22T11:43:55;7.93;;;6.30;;
44110;SDS011;29774;52.664;5.074;2023-11-22T11:46:21;7.28;;;5.80;;
44110;SDS011;29774;52.664;5.074;2023-11-22T11:48:52;10.55;;;7.53;;
44110;SDS011;29774;52.664;5.074;2023-11-22T11:51:28;10.02;;;7.28;;
44110;SDS011;29774;52.664;5.074;2023-11-22T11:53:54;8.68;;;5.97;;
44110;SDS011;29774;52.664;5.074;2023-11-22T11:56:21;8.32;;;6.35;;
44110;SDS011;29774;52.664;5.074;2023-11-22T11:58:48;9.10;;;6.53;;
44110;SDS011;29774;52.664;5.074;2023-11-22T12:01:15;9.90;;;6.18;;
44110;SDS011;29774;52.664;5.074;2023-11-22T12:03:42;10.23;;;7.03;;
44110;SDS011;29774;52.664;5.074;2023-11-22T12:06:17;8.77;;;6.82;;
44110;SDS011;29774;52.664;5.074;2023-11-22T12:08:44;9.68;;;6.88;;
44110;SDS011;29774;52.664;5.074;2023-11-22T12:11:10;8.93;;;6.22;;
44110;SDS011;29774;52.664;5.074;2023-11-22T12:13:36;10.00;;;6.28;;
44110;SDS011;29774;52.664;5.074;2023-11-22T12:16:11;11.68;;;7.20;;
44110;SDS011;29774;52.664;5.074;2023-11-22T12:18:43;8.57;;;5.03;;
44110;SDS011;29774;52.664;5.074;2023-11-22T12:21:10;6.85;;;5.20;;
44110;SDS011;29774;52.664;5.074;2023-11-22T12:23:38;7.45;;;6.00;;
44110;SDS011;29774;52.664;5.074;2023-11-22T12:26:05;9.55;;;5.70;;
44110;SDS011;29774;52.664;5.074;2023-11-22T12:28:36;7.03;;;5.15;;
44110;SDS011;29774;52.664;5.074;2023-11-22T12:31:08;6.00;;;4.57;;
44110;SDS011;29774;52.664;5.074;2023-11-22T12:33:35;6.90;;;5.45;;
44110;SDS011;29774;52.664;5.074;2023-11-22T12:36:02;8.30;;;5.25;;
44110;SDS011;29774;52.664;5.074;2023-11-22T12:38:29;6.90;;;5.65;;
44110;SDS011;29774;52.664;5.074;2023-11-22T12:40:57;6.28;;;5.00;;
44110;SDS011;29774;52.664;5.074;2023-11-22T12:43:24;6.95;;;5.57;;
44110;SDS011;29774;52.664;5.074;2023-11-22T12:46:03;7.65;;;5.75;;
44110;SDS011;29774;52.664;5.074;2023-11-22T12:48:32;5.93;;;4.70;;
44110;SDS011;29774;52.664;5.074;2023-11-22T12:50:59;6.47;;;4.40;;
44110;SDS011;29774;52.664;5.074;2023-11-22T12:53:25;9.00;;;6.30;;
44110;SDS011;29774;52.664;5.074;2023-11-22T12:55:53;7.57;;;4.93;;
44110;SDS011;29774;52.664;5.074;2023-11-22T12:58:20;9.65;;;6.40;;
44110;SDS011;29774;52.664;5.074;2023-11-22T13:00:53;10.32;;;6.35;;
44110;SDS011;29774;52.664;5.074;2023-11-22T13:03:26;7.80;;;5.80;;
44110;SDS011;29774;52.664;5.074;2023-11-22T13:05:52;11.63;;;6.80;;
44110;SDS011;29774;52.664;5.074;2023-11-22T13:08:18;11.32;;;6.78;;
44110;SDS011;29774;52.664;5.074;2023-11-22T13:10:47;7.95;;;5.68;;
44110;SDS011;29774;52.664;5.074;2023-11-22T13:13:19;8.82;;;6.10;;
44110;SDS011;29774;52.664;5.074;2023-11-22T13:15:45;8.35;;;6.45;;
44110;SDS011;29774;52.664;5.074;2023-11-22T13:18:11;10.23;;;6.82;;
44110;SDS011;29774;52.664;5.074;2023-11-22T13:20:37;11.38;;;6.85;;
44110;SDS011;29774;52.664;5.074;2023-11-22T13:23:05;7.85;;;5.45;;
44110;SDS011;29774;52.664;5.074;2023-11-22T13:25:32;9.40;;;6.10;;
44110;SDS011;29774;52.664;5.074;2023-11-22T13:27:58;10.68;;;6.85;;
44110;SDS011;29774;52.664;5.074;2023-11-22T13:30:24;11.40;;;7.28;;
44110;SDS011;29774;52.664;5.074;2023-11-22T13:32:50;9.73;;;7.30;;
44110;SDS011;29774;52.664;5.074;2023-11-22T13:35:21;9.68;;;7.00;;
44110;SDS011;29774;52.664;5.074;2023-11-22T13:37:47;12.07;;;7.00;;
44110;SDS011;29774;52.664;5.074;2023-11-22T13:40:14;8.60;;;6.45;;
44110;SDS011;29774;52.664;5.074;2023-11-22T13:42:42;9.35;;;5.95;;
44110;SDS011;29774;52.664;5.074;2023-11-22T13:45:09;11.30;;;7.00;;
44110;SDS011;29774;52.664;5.074;2023-11-22T13:47:37;8.20;;;5.53;;
44110;SDS011;29774;52.664;5.074;2023-11-22T13:50:03;9.60;;;7.20;;
44110;SDS011;29774;52.664;5.074;2023-11-22T13:52:29;6.78;;;5.20;;
44110;SDS011;29774;52.664;5.074;2023-11-22T13:54:54;8.18;;;6.20;;
44110;SDS011;29774;52.664;5.074;2023-11-22T13:57:22;8.65;;;5.68;;
44110;SDS011;29774;52.664;5.074;2023-11-22T13:59:48;9.52;;;6.45;;
44110;SDS011;29774;52.664;5.074;2023-11-22T14:02:14;9.20;;;6.45;;
44110;SDS011;29774;52.664;5.074;2023-11-22T14:04:39;8.88;;;5.28;;
44110;SDS011;29774;52.664;5.074;2023-11-22T14:07:05;9.82;;;7.22;;
44110;SDS011;29774;52.664;5.074;2023-11-22T14:09:31;9.45;;;6.28;;
44110;SDS011;29774;52.664;5.074;2023-11-22T14:12:01;9.88;;;7.45;;
44110;SDS011;29774;52.664;5.074;2023-11-22T14:14:27;10.60;;;7.10;;
44110;SDS011;29774;52.664;5.074;2023-11-22T14:16:52;10.05;;;5.85;;
44110;SDS011;29774;52.664;5.074;2023-11-22T14:19:18;16.60;;;7.47;;
44110;SDS011;29774;52.664;5.074;2023-11-22T14:21:44;10.35;;;6.72;;
44110;SDS011;29774;52.664;5.074;2023-11-22T14:24:10;10.18;;;6.93;;
44110;SDS011;29774;52.664;5.074;2023-11-22T14:26:36;11.57;;;7.00;;
44110;SDS011;29774;52.664;5.074;2023-11-22T14:29:02;11.52;;;6.70;;
44110;SDS011;29774;52.664;5.074;2023-11-22T14:31:28;11.82;;;7.20;;
44110;SDS011;29774;52.664;5.074;2023-11-22T14:33:54;11.45;;;7.15;;
44110;SDS011;29774;52.664;5.074;2023-11-22T14:36:22;8.00;;;6.32;;
44110;SDS011;29774;52.664;5.074;2023-11-22T14:38:48;9.93;;;6.65;;
44110;SDS011;29774;52.664;5.074;2023-11-22T14:41:19;8.60;;;5.88;;
44110;SDS011;29774;52.664;5.074;2023-11-22T14:43:47;8.40;;;6.00;;
44110;SDS011;29774;52.664;5.074;2023-11-22T14:46:12;11.13;;;7.20;;
44110;SDS011;29774;52.664;5.074;2023-11-22T14:48:38;10.43;;;6.60;;